Observation data for Plainview on 11/19/2019      Previous  Date       Current Mesonet Observations  Soil Data  Daily Summary Page  Observations in Plain Language
KPVS 190600Z 26002KT 05/M02 A2999 RMK A01 T00491023  RH  060%=      5-min Rain = 0
KPVS 190605Z 26003KT 05/M02 A2999 RMK A01 T00491023  RH  060%=      5-min Rain = 0
KPVS 190610Z 27002KT 05/M02 A2999 RMK A01 T00491023  RH  060%=      5-min Rain = 0
KPVS 190615Z 25001KT 05/M02 A2999 RMK A01 T00501022  RH  061%=      5-min Rain = 0
KPVS 190620Z 25001KT 05/M02 A2999 RMK A01 T00501023  RH  060%=      5-min Rain = 0
KPVS 190625Z 26001KT 05/M02 A2999 RMK A01 T00471024  RH  061%=      5-min Rain = 0
KPVS 190630Z 25001KT 04/M02 A2999 RMK A01 T00441024  RH  062%=      5-min Rain = 0
KPVS 190635Z 27001KT 04/M02 A2999 RMK A01 T00441023  RH  062%=      5-min Rain = 0
KPVS 190640Z 28002KT 04/M03 A2999 RMK A01 T00411028  RH  062%=      5-min Rain = 0
KPVS 190645Z 28002KT 04/M03 A2999 RMK A01 T00351027  RH  064%=      5-min Rain = 0
KPVS 190650Z 28002KT 04/M03 A2999 RMK A01 T00361025  RH  065%=      5-min Rain = 0
KPVS 190655Z 28001KT 04/M02 A2998 RMK A01 T00371024  RH  065%=      5-min Rain = 0
KPVS 190700Z 31001KT 04/M02 A2998 RMK A01 T00371023  RH  065%=      5-min Rain = 0
KPVS 190705Z 32001KT 04/M02 A2998 RMK A01 T00391022  RH  065%=      5-min Rain = 0
KPVS 190710Z 30002KT 04/M02 A2998 RMK A01 T00401021  RH  065%=      5-min Rain = 0
KPVS 190715Z 31002KT 04/M02 A2998 RMK A01 T00421020  RH  065%=      5-min Rain = 0
KPVS 190720Z 30003KT 04/M02 A2998 RMK A01 T00421021  RH  064%=      5-min Rain = 0
KPVS 190725Z 30003KT 05/M02 A2998 RMK A01 T00461016  RH  065%=      5-min Rain = 0
KPVS 190730Z 30003KT 04/M03 A2999 RMK A01 T00391025  RH  064%=      5-min Rain = 0
KPVS 190735Z 30002KT 04/M02 A2999 RMK A01 T00361018  RH  068%=      5-min Rain = 0
KPVS 190740Z 31002KT 04/M02 A2999 RMK A01 T00411016  RH  067%=      5-min Rain = 0
KPVS 190745Z 33001KT 04/M02 A2999 RMK A01 T00421018  RH  066%=      5-min Rain = 0
KPVS 190750Z 33001KT 04/M02 A2999 RMK A01 T00411020  RH  065%=      5-min Rain = 0
KPVS 190755Z 33002KT 04/M02 A2999 RMK A01 T00401022  RH  065%=      5-min Rain = 0
KPVS 190800Z 32002KT 04/M02 A2999 RMK A01 T00391021  RH  065%=      5-min Rain = 0
KPVS 190805Z 31002KT 04/M02 A2999 RMK A01 T00371022  RH  066%=      5-min Rain = 0
KPVS 190810Z 29002KT 04/M02 A2999 RMK A01 T00351023  RH  067%=      5-min Rain = 0
KPVS 190815Z 28002KT 04/M02 A2999 RMK A01 T00351023  RH  067%=      5-min Rain = 0
KPVS 190820Z 28001KT 04/M02 A2999 RMK A01 T00351023  RH  067%=      5-min Rain = 0
KPVS 190825Z 30002KT 03/M02 A2999 RMK A01 T00341023  RH  067%=      5-min Rain = 0
KPVS 190830Z 31002KT 03/M02 A2999 RMK A01 T00321024  RH  067%=      5-min Rain = 0
KPVS 190835Z 31002KT 03/M03 A2999 RMK A01 T00301026  RH  068%=      5-min Rain = 0
KPVS 190840Z 31003KT 03/M02 A2999 RMK A01 T00281023  RH  070%=      5-min Rain = 0
KPVS 190845Z 32003KT 03/M02 A2999 RMK A01 T00321019  RH  070%=      5-min Rain = 0
KPVS 190850Z 32003KT 04/M02 A2999 RMK A01 T00371017  RH  069%=      5-min Rain = 0
KPVS 190855Z 31003KT 04/M02 A2999 RMK A01 T00391018  RH  067%=      5-min Rain = 0
KPVS 190900Z 30002KT 04/M02 A2999 RMK A01 T00381019  RH  067%=      5-min Rain = 0
KPVS 190905Z 31002KT 04/M02 A2999 RMK A01 T00381017  RH  068%=      5-min Rain = 0
KPVS 190910Z 31002KT 04/M02 A2999 RMK A01 T00391017  RH  068%=      5-min Rain = 0
KPVS 190915Z 31002KT 04/M02 A2999 RMK A01 T00401018  RH  067%=      5-min Rain = 0
KPVS 190920Z 30002KT 04/M02 A2999 RMK A01 T00391019  RH  066%=      5-min Rain = 0
KPVS 190925Z 27002KT 04/M02 A2999 RMK A01 T00381021  RH  066%=      5-min Rain = 0
KPVS 190930Z 28001KT 04/M02 A2999 RMK A01 T00381019  RH  067%=      5-min Rain = 0
KPVS 190935Z 28001KT 04/M02 A2999 RMK A01 T00381020  RH  066%=      5-min Rain = 0
KPVS 190940Z 28001KT 04/M02 A2999 RMK A01 T00351022  RH  067%=      5-min Rain = 0
KPVS 190945Z 28000KT 03/M02 A2999 RMK A01 T00321023  RH  068%=      5-min Rain = 0
KPVS 190950Z 28000KT 03/M02 A2999 RMK A01 T00311022  RH  069%=      5-min Rain = 0
KPVS 190955Z 00000KT 03/M02 A2999 RMK A01 T00321022  RH  069%=      5-min Rain = 0
KPVS 191000Z 00000KT 03/M02 A2999 RMK A01 T00321023  RH  068%=      5-min Rain = 0
KPVS 191005Z 00000KT 03/M02 A2998 RMK A01 T00311024  RH  068%=      5-min Rain = 0
KPVS 191010Z 00000KT 03/M02 A2998 RMK A01 T00301024  RH  068%=      5-min Rain = 0
KPVS 191015Z 00000KT 03/M02 A2998 RMK A01 T00301024  RH  069%=      5-min Rain = 0
KPVS 191020Z 00000KT 03/M02 A2998 RMK A01 T00291024  RH  069%=      5-min Rain = 0
KPVS 191025Z 00000KT 03/M03 A2998 RMK A01 T00271026  RH  069%=      5-min Rain = 0
KPVS 191030Z 00000KT 02/M03 A2998 RMK A01 T00231028  RH  070%=      5-min Rain = 0
KPVS 191035Z 00000KT 02/M03 A2998 RMK A01 T00211028  RH  071%=      5-min Rain = 0
KPVS 191040Z 35000KT 02/M03 A2997 RMK A01 T00191028  RH  072%=      5-min Rain = 0
KPVS 191045Z 32003KT 01/M03 A2997 RMK A01 T00141033  RH  072%=      5-min Rain = 0
KPVS 191050Z 31004KT 01/M03 A2998 RMK A01 T00111031  RH  075%=      5-min Rain = 0
KPVS 191055Z 29004KT 01/M03 A2998 RMK A01 T00141027  RH  075%=      5-min Rain = 0
KPVS 191100Z 29003KT 02/M03 A2997 RMK A01 T00181025  RH  074%=      5-min Rain = 0
KPVS 191105Z 00002KT 02/M02 A2997 RMK A01 T00221020  RH  075%=      5-min Rain = 0
KPVS 191110Z 35002KT 03/M02 A2997 RMK A01 T00261020  RH  073%=      5-min Rain = 0
KPVS 191115Z 35002KT 03/M02 A2996 RMK A01 T00271018  RH  073%=      5-min Rain = 0
KPVS 191120Z 00002KT 03/M02 A2996 RMK A01 T00291018  RH  072%=      5-min Rain = 0
KPVS 191125Z 01001KT 03/M02 A2996 RMK A01 T00291020  RH  071%=      5-min Rain = 0
KPVS 191130Z 01001KT 03/M02 A2996 RMK A01 T00291020  RH  071%=      5-min Rain = 0
KPVS 191135Z 26000KT 03/M02 A2996 RMK A01 T00281021  RH  071%=      5-min Rain = 0
KPVS 191140Z 27002KT 02/M03 A2996 RMK A01 T00231027  RH  070%=      5-min Rain = 0
KPVS 191145Z 27002KT 02/M03 A2996 RMK A01 T00181025  RH  074%=      5-min Rain = 0
KPVS 191150Z 26003KT 02/M03 A2996 RMK A01 T00171028  RH  073%=      5-min Rain = 0
KPVS 191155Z 26003KT 01/M03 A2996 RMK A01 T00121030  RH  075%=      5-min Rain = 0
KPVS 191200Z 28003KT 01/M03 A2996 RMK A01 T00101028  RH  076%=      5-min Rain = 0
KPVS 191205Z 30003KT 01/M03 A2996 RMK A01 T00131025  RH  076%=      5-min Rain = 0
KPVS 191210Z 30002KT 02/M03 A2997 RMK A01 T00151025  RH  076%=      5-min Rain = 0
KPVS 191215Z 29002KT 02/M03 A2997 RMK A01 T00151025  RH  075%=      5-min Rain = 0
KPVS 191220Z 29001KT 02/M02 A2996 RMK A01 T00161024  RH  075%=      5-min Rain = 0
KPVS 191225Z 29000KT 02/M02 A2996 RMK A01 T00171023  RH  075%=      5-min Rain = 0
KPVS 191230Z 24001KT 02/M02 A2996 RMK A01 T00191023  RH  075%=      5-min Rain = 0
KPVS 191235Z 23002KT 02/M02 A2996 RMK A01 T00211022  RH  074%=      5-min Rain = 0
KPVS 191240Z 24001KT 02/M02 A2996 RMK A01 T00221022  RH  073%=      5-min Rain = 0
KPVS 191245Z 24001KT 02/M02 A2996 RMK A01 T00221024  RH  072%=      5-min Rain = 0
KPVS 191250Z 24000KT 02/M03 A2996 RMK A01 T00201026  RH  072%=      5-min Rain = 0
KPVS 191255Z 24001KT 02/M03 A2996 RMK A01 T00161029  RH  073%=      5-min Rain = 0
KPVS 191300Z 24001KT 01/M03 A2996 RMK A01 T00141029  RH  074%=      5-min Rain = 0
KPVS 191305Z 00000KT 01/M03 A2996 RMK A01 T00111029  RH  075%=      5-min Rain = 0
KPVS 191310Z 00000KT 01/M03 A2996 RMK A01 T00091031  RH  076%=      5-min Rain = 0
KPVS 191315Z 24000KT 01/M03 A2996 RMK A01 T00071030  RH  077%=      5-min Rain = 0
KPVS 191320Z 24000KT 01/M03 A2996 RMK A01 T00071029  RH  077%=      5-min Rain = 0
KPVS 191325Z 24000KT 01/M03 A2996 RMK A01 T00081027  RH  078%=      5-min Rain = 0
KPVS 191330Z 24000KT 01/M03 A2996 RMK A01 T00091027  RH  078%=      5-min Rain = 0
KPVS 191335Z 00000KT 01/M03 A2996 RMK A01 T00101026  RH  078%=      5-min Rain = 0
KPVS 191340Z 00000KT 01/M03 A2996 RMK A01 T00121025  RH  077%=      5-min Rain = 0
KPVS 191345Z 24000KT 02/M02 A2996 RMK A01 T00151023  RH  077%=      5-min Rain = 0
KPVS 191350Z 24000KT 02/M02 A2996 RMK A01 T00201021  RH  075%=      5-min Rain = 0
KPVS 191355Z 00000KT 03/M02 A2996 RMK A01 T00281017  RH  073%=      5-min Rain = 0
KPVS 191400Z 00000KT 04/M01 A2996 RMK A01 T00371012  RH  071%=      5-min Rain = 0
KPVS 191405Z 21000KT 04/M02 A2996 RMK A01 T00381015  RH  069%=      5-min Rain = 0
KPVS 191410Z 19001KT 04/M02 A2996 RMK A01 T00381015  RH  069%=      5-min Rain = 0
KPVS 191415Z 22001KT 04/M02 A2996 RMK A01 T00381017  RH  068%=      5-min Rain = 0
KPVS 191420Z 22001KT 04/M01 A2996 RMK A01 T00421011  RH  069%=      5-min Rain = 0
KPVS 191425Z 16000KT 05/M00 A2996 RMK A01 T00491004  RH  069%=      5-min Rain = 0
KPVS 191430Z 15001KT 06/00 A2996 RMK A01 T00620003  RH  067%=      5-min Rain = 0
KPVS 191435Z 16001KT 08/01 A2995 RMK A01 T00750006  RH  062%=      5-min Rain = 0
KPVS 191440Z 20001KT 08/00 A2995 RMK A01 T00810003  RH  059%=      5-min Rain = 0
KPVS 191445Z 19002KT 09/01 A2996 RMK A01 T00860009  RH  059%=      5-min Rain = 0
KPVS 191450Z 17004KT 10/01 A2995 RMK A01 T01010012  RH  055%=      5-min Rain = 0
KPVS 191455Z 17004KT 12/01 A2995 RMK A01 T01150013  RH  050%=      5-min Rain = 0
KPVS 191500Z 17004KT 12/01 A2996 RMK A01 T01230014  RH  048%=      5-min Rain = 0
KPVS 191505Z 16006KT 13/01 A2995 RMK A01 T01290014  RH  046%=      5-min Rain = 0
KPVS 191510Z 16006KT 13/01 A2995 RMK A01 T01340013  RH  044%=      5-min Rain = 0
KPVS 191515Z 16006KT 14/01 A2995 RMK A01 T01380014  RH  043%=      5-min Rain = 0
KPVS 191520Z 16005KT 14/01 A2995 RMK A01 T01410014  RH  043%=      5-min Rain = 0
KPVS 191525Z 16004KT 15/02 A2995 RMK A01 T01450016  RH  042%=      5-min Rain = 0
KPVS 191530Z 16004KT 15/02 A2995 RMK A01 T01500018  RH  041%=      5-min Rain = 0
KPVS 191535Z 17005KT 16/02 A2995 RMK A01 T01590018  RH  039%=      5-min Rain = 0
KPVS 191540Z 17005KT 17/01 A2995 RMK A01 T01660014  RH  036%=      5-min Rain = 0
KPVS 191545Z 16007KT 17/01 A2995 RMK A01 T01700012  RH  035%=      5-min Rain = 0
KPVS 191550Z 15006KT 17/01 A2995 RMK A01 T01740013  RH  034%=      5-min Rain = 0
KPVS 191555Z 15008KT 18/01 A2995 RMK A01 T01780012  RH  033%=      5-min Rain = 0
KPVS 191600Z 16008KT 18/01 A2995 RMK A01 T01810014  RH  033%=      5-min Rain = 0
KPVS 191605Z 16007KT 19/02 A2995 RMK A01 T01870015  RH  032%=      5-min Rain = 0
KPVS 191610Z 17005KT 19/02 A2995 RMK A01 T01920018  RH  032%=      5-min Rain = 0
KPVS 191615Z 18007KT 20/02 A2995 RMK A01 T02000019  RH  030%=      5-min Rain = 0
KPVS 191620Z 18010G16KT 21/01 A2995 RMK A01 T02060013  RH  028%=      5-min Rain = 0
KPVS 191625Z 18011G17KT 21/00 A2995 RMK A01 T02100003  RH  025%=      5-min Rain = 0
KPVS 191630Z 20011G17KT 21/01 A2995 RMK A01 T02090008  RH  027%=      5-min Rain = 0
KPVS 191635Z 19010G15KT 21/M00 A2995 RMK A01 T02141001  RH  024%=      5-min Rain = 0
KPVS 191640Z 19011G16KT 22/M00 A2995 RMK A01 T02151001  RH  024%=      5-min Rain = 0
KPVS 191645Z 19013KT 21/M00 A2995 RMK A01 T02111003  RH  024%=      5-min Rain = 0
KPVS 191650Z 19012KT 21/00 A2995 RMK A01 T021000-0  RH  025%=      5-min Rain = 0
KPVS 191655Z 20013KT 21/00 A2994 RMK A01 T02090001  RH  025%=      5-min Rain = 0
KPVS 191700Z 19013G18KT 21/00 A2994 RMK A01 T02050003  RH  026%=      5-min Rain = 0
KPVS 191705Z 20012KT 21/00 A2994 RMK A01 T02070003  RH  026%=      5-min Rain = 0
KPVS 191710Z 18013G18KT 21/00 A2994 RMK A01 T02100003  RH  025%=      5-min Rain = 0
KPVS 191715Z 18012G17KT 21/01 A2993 RMK A01 T02110006  RH  026%=      5-min Rain = 0
KPVS 191720Z 17011G16KT 21/01 A2993 RMK A01 T02100006  RH  026%=      5-min Rain = 0
KPVS 191725Z 18011G17KT 21/01 A2993 RMK A01 T02090006  RH  026%=      5-min Rain = 0
KPVS 191730Z 18013G18KT 21/00 A2992 RMK A01 T02130004  RH  025%=      5-min Rain = 0
KPVS 191735Z 19013KT 22/01 A2992 RMK A01 T02160005  RH  025%=      5-min Rain = 0
KPVS 191740Z 19013KT 21/01 A2992 RMK A01 T02140005  RH  025%=      5-min Rain = 0
KPVS 191745Z 18013G18KT 22/00 A2992 RMK A01 T02170004  RH  025%=      5-min Rain = 0
KPVS 191750Z 17012G17KT 22/01 A2991 RMK A01 T02190006  RH  025%=      5-min Rain = 0
KPVS 191755Z 18012G18KT 22/01 A2991 RMK A01 T02210005  RH  024%=      5-min Rain = 0
KPVS 191800Z 19013G19KT 22/00 A2991 RMK A01 T02230004  RH  024%=      5-min Rain = 0
KPVS 191805Z 19014KT 23/00 A2991 RMK A01 T02250003  RH  023%=      5-min Rain = 0
KPVS 191810Z 18014G19KT 23/00 A299 RMK A01 T02260000  RH  023%=      5-min Rain = 0
KPVS 191815Z 19014G20KT 23/M00 A299 RMK A01 T02291001  RH  022%=      5-min Rain = 0
KPVS 191820Z 19014G20KT 23/M00 A299 RMK A01 T02301001  RH  022%=      5-min Rain = 0
KPVS 191825Z 19015KT 23/M00 A2989 RMK A01 T02301001  RH  022%=      5-min Rain = 0
KPVS 191830Z 19015G22KT 23/M00 A2989 RMK A01 T02291001  RH  022%=      5-min Rain = 0
KPVS 191835Z 19014G20KT 23/M00 A2989 RMK A01 T02321001  RH  021%=      5-min Rain = 0
KPVS 191840Z 19015G21KT 23/M00 A2989 RMK A01 T02291001  RH  022%=      5-min Rain = 0
KPVS 191845Z 19016G21KT 23/M00 A2988 RMK A01 T02281002  RH  022%=      5-min Rain = 0
KPVS 191850Z 19015G21KT 23/00 A2988 RMK A01 T02320000  RH  022%=      5-min Rain = 0
KPVS 191855Z 19015G20KT 23/00 A2988 RMK A01 T02330001  RH  022%=      5-min Rain = 0
KPVS 191900Z 19017G22KT 23/M00 A2987 RMK A01 T02321001  RH  022%=      5-min Rain = 0
KPVS 191905Z 19016G22KT 23/M00 A2987 RMK A01 T02341003  RH  021%=      5-min Rain = 0
KPVS 191910Z 20016G21KT 23/M00 A2987 RMK A01 T02341002  RH  021%=      5-min Rain = 0
KPVS 191915Z 20016G22KT 24/M00 A2986 RMK A01 T02351001  RH  021%=      5-min Rain = 0
KPVS 191920Z 19017G22KT 24/M00 A2986 RMK A01 T02371003  RH  021%=      5-min Rain = 0
KPVS 191925Z 20014G21KT 24/M00 A2986 RMK A01 T02391003  RH  020%=      5-min Rain = 0
KPVS 191930Z 20017G25KT 24/M00 A2986 RMK A01 T02421004  RH  020%=      5-min Rain = 0
KPVS 191935Z 20017G24KT 24/M00 A2985 RMK A01 T02381004  RH  020%=      5-min Rain = 0
KPVS 191940Z 19017G22KT 24/M00 A2985 RMK A01 T02401003  RH  020%=      5-min Rain = 0
KPVS 191945Z 20016G21KT 24/M00 A2985 RMK A01 T02411004  RH  020%=      5-min Rain = 0
KPVS 191950Z 21018G26KT 24/M01 A2985 RMK A01 T02411009  RH  019%=      5-min Rain = 0
KPVS 191955Z 20017G22KT 24/M01 A2985 RMK A01 T02421007  RH  019%=      5-min Rain = 0
KPVS 192000Z 19017G23KT 24/M01 A2985 RMK A01 T02421007  RH  019%=      5-min Rain = 0
KPVS 192005Z 19019G25KT 24/M01 A2985 RMK A01 T02401007  RH  020%=      5-min Rain = 0
KPVS 192010Z 21017G25KT 24/M01 A2984 RMK A01 T02371007  RH  020%=      5-min Rain = 0
KPVS 192015Z 20015G21KT 24/M00 A2984 RMK A01 T02391003  RH  020%=      5-min Rain = 0
KPVS 192020Z 20017G22KT 24/M01 A2984 RMK A01 T02391005  RH  020%=      5-min Rain = 0
KPVS 192025Z 19017G22KT 24/M01 A2983 RMK A01 T02411008  RH  019%=      5-min Rain = 0
KPVS 192030Z 20017G23KT 24/M01 A2983 RMK A01 T02421010  RH  019%=      5-min Rain = 0
KPVS 192035Z 19018G25KT 24/M01 A2983 RMK A01 T02421012  RH  019%=      5-min Rain = 0
KPVS 192040Z 20016G24KT 24/M01 A2983 RMK A01 T02401012  RH  019%=      5-min Rain = 0
KPVS 192045Z 19017G22KT 24/M01 A2983 RMK A01 T02391011  RH  019%=      5-min Rain = 0
KPVS 192050Z 20014G21KT 24/M01 A2983 RMK A01 T02411010  RH  019%=      5-min Rain = 0
KPVS 192055Z 20016G24KT 24/M01 A2982 RMK A01 T02441013  RH  018%=      5-min Rain = 0
KPVS 192100Z 19017G23KT 24/M01 A2982 RMK A01 T02431013  RH  019%=      5-min Rain = 0
KPVS 192105Z 19017G22KT 24/M01 A2982 RMK A01 T02411012  RH  019%=      5-min Rain = 0
KPVS 192110Z 19015G21KT 24/M01 A2982 RMK A01 T02431011  RH  019%=      5-min Rain = 0
KPVS 192115Z 20016G22KT 24/M01 A2982 RMK A01 T02441012  RH  018%=      5-min Rain = 0
KPVS 192120Z 20014G19KT 25/M01 A2982 RMK A01 T02461012  RH  018%=      5-min Rain = 0
KPVS 192125Z 20016G21KT 24/M01 A2981 RMK A01 T02441013  RH  018%=      5-min Rain = 0
KPVS 192130Z 20015G23KT 24/M01 A2981 RMK A01 T02431012  RH  019%=      5-min Rain = 0
KPVS 192135Z 19015G22KT 24/M01 A2981 RMK A01 T02421010  RH  019%=      5-min Rain = 0
KPVS 192140Z 19017G22KT 24/M01 A2981 RMK A01 T02421010  RH  019%=      5-min Rain = 0
KPVS 192145Z 19015G23KT 24/M01 A2981 RMK A01 T02421010  RH  019%=      5-min Rain = 0
KPVS 192150Z 20016G22KT 24/M01 A2981 RMK A01 T02411011  RH  019%=      5-min Rain = 0
KPVS 192155Z 19014G21KT 24/M01 A2981 RMK A01 T02411008  RH  019%=      5-min Rain = 0
KPVS 192200Z 19017G22KT 24/M01 A2981 RMK A01 T02411008  RH  019%=      5-min Rain = 0
KPVS 192205Z 20015G20KT 24/M01 A2981 RMK A01 T02401008  RH  019%=      5-min Rain = 0
KPVS 192210Z 19015KT 24/M01 A2981 RMK A01 T02411007  RH  020%=      5-min Rain = 0
KPVS 192215Z 19015G21KT 24/M01 A2981 RMK A01 T02411005  RH  020%=      5-min Rain = 0
KPVS 192220Z 19015G20KT 24/M01 A2981 RMK A01 T02411006  RH  020%=      5-min Rain = 0
KPVS 192225Z 19015G21KT 24/M01 A298 RMK A01 T02401006  RH  020%=      5-min Rain = 0
KPVS 192230Z 18013KT 24/M00 A2981 RMK A01 T02381004  RH  020%=      5-min Rain = 0
KPVS 192235Z 19016G21KT 24/M01 A2981 RMK A01 T02361005  RH  020%=      5-min Rain = 0
KPVS 192240Z 19014G22KT 24/M01 A298 RMK A01 T02351007  RH  020%=      5-min Rain = 0
KPVS 192245Z 19014KT 24/M01 A298 RMK A01 T02351008  RH  020%=      5-min Rain = 0
KPVS 192250Z 19013G18KT 23/M01 A298 RMK A01 T02341008  RH  020%=      5-min Rain = 0
KPVS 192255Z 19011KT 23/M01 A298 RMK A01 T02321008  RH  021%=      5-min Rain = 0
KPVS 192300Z 18010KT 23/M01 A298 RMK A01 T02301008  RH  021%=      5-min Rain = 0
KPVS 192305Z 17010KT 23/M01 A298 RMK A01 T02251007  RH  022%=      5-min Rain = 0
KPVS 192310Z 16009KT 22/M00 A298 RMK A01 T02181003  RH  023%=      5-min Rain = 0
KPVS 192315Z 16009KT 21/00 A298 RMK A01 T02130002  RH  025%=      5-min Rain = 0
KPVS 192320Z 16009KT 21/00 A298 RMK A01 T02080004  RH  026%=      5-min Rain = 0
KPVS 192325Z 16008KT 21/01 A298 RMK A01 T02050006  RH  027%=      5-min Rain = 0
KPVS 192330Z 16008KT 20/01 A298 RMK A01 T02020007  RH  028%=      5-min Rain = 0
KPVS 192335Z 15008KT 20/01 A2981 RMK A01 T01980007  RH  028%=      5-min Rain = 0
KPVS 192340Z 15007KT 19/01 A2981 RMK A01 T01930007  RH  029%=      5-min Rain = 0
KPVS 192345Z 15008KT 19/01 A2981 RMK A01 T01890007  RH  030%=      5-min Rain = 0
KPVS 192350Z 15007KT 19/01 A2981 RMK A01 T01850006  RH  030%=      5-min Rain = 0
KPVS 192355Z 15007KT 18/01 A2981 RMK A01 T01820006  RH  031%=      5-min Rain = 0
KPVS 200000Z 15008KT 18/01 A2981 RMK A01 T01800005  RH  031%=      5-min Rain = 0
KPVS 200005Z 15009KT 18/00 A2981 RMK A01 T01800004  RH  031%=      5-min Rain = 0
KPVS 200010Z 15008KT 18/01 A2981 RMK A01 T01780005  RH  032%=      5-min Rain = 0
KPVS 200015Z 16009KT 18/01 A2981 RMK A01 T01760006  RH  032%=      5-min Rain = 0
KPVS 200020Z 16008KT 17/01 A2981 RMK A01 T01740007  RH  033%=      5-min Rain = 0
KPVS 200025Z 15008KT 17/01 A2981 RMK A01 T01720009  RH  034%=      5-min Rain = 0
KPVS 200030Z 15008KT 17/01 A2981 RMK A01 T01710010  RH  034%=      5-min Rain = 0
KPVS 200035Z 15008KT 17/01 A2981 RMK A01 T01690011  RH  035%=      5-min Rain = 0
KPVS 200040Z 15007KT 17/01 A2981 RMK A01 T01670012  RH  035%=      5-min Rain = 0
KPVS 200045Z 16007G12KT 17/01 A2981 RMK A01 T01650014  RH  037%=      5-min Rain = 0
KPVS 200050Z 16008KT 16/02 A2981 RMK A01 T01640015  RH  037%=      5-min Rain = 0
KPVS 200055Z 16009KT 16/02 A2981 RMK A01 T01630015  RH  037%=      5-min Rain = 0
KPVS 200100Z 16010KT 16/02 A2981 RMK A01 T01630015  RH  037%=      5-min Rain = 0
KPVS 200105Z 16009KT 16/02 A2981 RMK A01 T01630015  RH  037%=      5-min Rain = 0
KPVS 200110Z 16008KT 16/02 A2981 RMK A01 T01600015  RH  038%=      5-min Rain = 0
KPVS 200115Z 16009KT 16/02 A2981 RMK A01 T01560016  RH  039%=      5-min Rain = 0
KPVS 200120Z 16009KT 15/02 A2981 RMK A01 T01520016  RH  040%=      5-min Rain = 0
KPVS 200125Z 16009KT 15/02 A2981 RMK A01 T01500016  RH  041%=      5-min Rain = 0
KPVS 200130Z 17008KT 15/02 A2981 RMK A01 T01470016  RH  042%=      5-min Rain = 0
KPVS 200135Z 17008KT 14/02 A2981 RMK A01 T01440016  RH  042%=      5-min Rain = 0
KPVS 200140Z 17009KT 14/02 A2981 RMK A01 T01410016  RH  043%=      5-min Rain = 0
KPVS 200145Z 16009KT 14/02 A2981 RMK A01 T01420016  RH  043%=      5-min Rain = 0
KPVS 200150Z 17009KT 14/02 A2981 RMK A01 T01420016  RH  043%=      5-min Rain = 0
KPVS 200155Z 17009KT 14/02 A2981 RMK A01 T01390016  RH  044%=      5-min Rain = 0
KPVS 200200Z 17010KT 14/02 A2981 RMK A01 T01390018  RH  044%=      5-min Rain = 0
KPVS 200205Z 17009KT 14/02 A2981 RMK A01 T01410018  RH  044%=      5-min Rain = 0
KPVS 200210Z 17010KT 14/02 A2982 RMK A01 T01400019  RH  044%=      5-min Rain = 0
KPVS 200215Z 18010KT 14/02 A2982 RMK A01 T01390019  RH  045%=      5-min Rain = 0
KPVS 200220Z 18010KT 14/02 A2982 RMK A01 T01390020  RH  045%=      5-min Rain = 0
KPVS 200225Z 18009KT 14/02 A2982 RMK A01 T01360020  RH  046%=      5-min Rain = 0
KPVS 200230Z 18009G14KT 13/02 A2981 RMK A01 T01330019  RH  046%=      5-min Rain = 0
KPVS 200235Z 18010KT 14/02 A2981 RMK A01 T01350020  RH  046%=      5-min Rain = 0
KPVS 200240Z 18010KT 14/02 A2981 RMK A01 T01390020  RH  045%=      5-min Rain = 0
KPVS 200245Z 18010KT 14/02 A2982 RMK A01 T01400021  RH  045%=      5-min Rain = 0
KPVS 200250Z 18010KT 14/02 A2982 RMK A01 T01390021  RH  045%=      5-min Rain = 0
KPVS 200255Z 18009KT 14/02 A2982 RMK A01 T01380021  RH  046%=      5-min Rain = 0
KPVS 200300Z 18009KT 14/02 A2982 RMK A01 T01360021  RH  046%=      5-min Rain = 0
KPVS 200305Z 18008KT 14/02 A2982 RMK A01 T01360021  RH  046%=      5-min Rain = 0
KPVS 200310Z 18009KT 13/02 A2982 RMK A01 T01340021  RH  047%=      5-min Rain = 0
KPVS 200315Z 18009KT 13/02 A2982 RMK A01 T01340021  RH  047%=      5-min Rain = 0
KPVS 200320Z 18009KT 13/02 A2982 RMK A01 T01330020  RH  047%=      5-min Rain = 0
KPVS 200325Z 18008KT 13/02 A2982 RMK A01 T01330019  RH  047%=      5-min Rain = 0
KPVS 200330Z 18009KT 13/02 A2981 RMK A01 T01340020  RH  046%=      5-min Rain = 0
KPVS 200335Z 18009G14KT 14/02 A2981 RMK A01 T01350020  RH  046%=      5-min Rain = 0
KPVS 200340Z 18009KT 14/02 A2982 RMK A01 T01360020  RH  046%=      5-min Rain = 0
KPVS 200345Z 18009KT 14/02 A2982 RMK A01 T01360020  RH  046%=      5-min Rain = 0
KPVS 200350Z 18009G14KT 14/02 A2982 RMK A01 T01380020  RH  045%=      5-min Rain = 0
KPVS 200355Z 18011KT 14/02 A2981 RMK A01 T01410020  RH  045%=      5-min Rain = 0
KPVS 200400Z 18010KT 14/02 A2981 RMK A01 T01430021  RH  044%=      5-min Rain = 0
KPVS 200405Z 18010G15KT 14/02 A2981 RMK A01 T01430021  RH  044%=      5-min Rain = 0
KPVS 200410Z 18010G15KT 14/02 A2981 RMK A01 T01440022  RH  044%=      5-min Rain = 0
KPVS 200415Z 18011KT 14/02 A2982 RMK A01 T01430023  RH  045%=      5-min Rain = 0
KPVS 200420Z 18010KT 14/02 A2981 RMK A01 T01410023  RH  045%=      5-min Rain = 0
KPVS 200425Z 18008G13KT 14/02 A2981 RMK A01 T01370022  RH  046%=      5-min Rain = 0
KPVS 200430Z 18008KT 13/02 A2981 RMK A01 T01330022  RH  047%=      5-min Rain = 0
KPVS 200435Z 18009KT 13/02 A2981 RMK A01 T01300021  RH  048%=      5-min Rain = 0
KPVS 200440Z 18010KT 13/02 A2981 RMK A01 T01290021  RH  048%=      5-min Rain = 0
KPVS 200445Z 19010KT 13/02 A2981 RMK A01 T01300022  RH  048%=      5-min Rain = 0
KPVS 200450Z 19012KT 13/02 A2981 RMK A01 T01320023  RH  048%=      5-min Rain = 0
KPVS 200455Z 19011G16KT 13/03 A2981 RMK A01 T01340025  RH  048%=      5-min Rain = 0
KPVS 200500Z 19011KT 13/03 A2981 RMK A01 T01320026  RH  049%=      5-min Rain = 0
KPVS 200505Z 19012KT 13/03 A2981 RMK A01 T01300028  RH  050%=      5-min Rain = 0
KPVS 200510Z 19012KT 13/03 A2981 RMK A01 T01310031  RH  051%=      5-min Rain = 0
KPVS 200515Z 19012G17KT 13/03 A2982 RMK A01 T01320032  RH  051%=      5-min Rain = 0
KPVS 200520Z 19012G17KT 13/03 A2982 RMK A01 T01320034  RH  052%=      5-min Rain = 0
KPVS 200525Z 20011KT 13/04 A2982 RMK A01 T01310036  RH  053%=      5-min Rain = 0
KPVS 200530Z 20010G15KT 13/04 A2982 RMK A01 T01310038  RH  054%=      5-min Rain = 0
KPVS 200535Z 21009G14KT 13/04 A2982 RMK A01 T01290040  RH  055%=      5-min Rain = 0
KPVS 200540Z 20011G17KT 13/05 A2982 RMK A01 T01320046  RH  057%=      5-min Rain = 0
KPVS 200545Z 20012G17KT 14/05 A2982 RMK A01 T01380052  RH  057%=      5-min Rain = 0
KPVS 200550Z 19012G17KT 14/06 A2981 RMK A01 T01430057  RH  057%=      5-min Rain = 0
KPVS 200555Z 20013G18KT 15/06 A2981 RMK A01 T01470061  RH  057%=      5-min Rain = 0

Page generated in 0.0094 seconds.